KBPG

Big Spring Mc Mahon-Wrinkle Airport

Big Spring, Texas, USA
METAR KBPG 151315Z AUTO 30004KT 10SM CLR M01/M05 A3036 RMK AO2 T10131050
Observed Flight Rules
Dec-15 @ 13:15 UTC (30 minutes ago) Visual Flight Rules
Wind Visibility Clouds
300° at 4 knots 10 miles
  • Clear skies
Temperatures Readings
Current -1°C / 30°F
Dewpoint -5°C / 23°F
Humidity 75%
Altimeter 30.36" Hg
Pressure 1028 hPa
Elevation 784
METAR KBPG 151315Z AUTO 30004KT 10SM CLR M01/M05 A3036 RMK AO2 T10131050
Observed Flight Rules
Dec-15 @ 13:15 UTC
(30 minutes ago)
VFR
Wind Visibility
300° at 4 knots 10 miles
Clouds
  • Clear skies
Temperature Dewpoint
-1°C / 30°F -5°C / 23°F
Humidity Altimeter Pressure
75% 30.36" Hg 1028 hPa